Time;durP1;ratioP1;P1;durP2;ratioP2;P2;SDS_P1;SDS_P2;PMS_P1;PMS_P2;Temp;Humidity;BMP_temperature;BMP_pressure;BME280_temperature;BME280_humidity;BME280_pressure;Samples;Min_cycle;Max_cycle;Signal;HPM_P1;HPM_P2
2022/09/08 00:00:45;;;;;;;;;;;512.40;2380.80;;;;;;5050901;28;20015;-60
2022/09/08 00:03:12;;;;;;;;;;;512.50;2380.80;;;;;;5050739;28;19955;-60
2022/09/08 00:05:43;;;;;;;;;;;512.60;2380.80;;;;;;5050825;28;20393;-61
2022/09/08 00:08:09;;;;;;;;;;;512.70;2380.80;;;;;;5050662;28;19988;-61
2022/09/08 00:10:36;;;;;;;;;;;512.60;2380.80;;;;;;5050885;28;19963;-61
2022/09/08 00:13:01;;;;;;;;;;;512.50;2380.80;;;;;;5050808;28;19944;-60
2022/09/08 00:15:27;;;;;;;;;;;512.30;2380.80;;;;;;5050790;28;19916;-60
2022/09/08 00:17:53;;;;;;;;;;;512.20;2380.80;;;;;;5051130;28;19909;-60
2022/09/08 00:20:18;;;;;;;;;;;512.10;2380.80;;;;;;5051031;28;19916;-60
2022/09/08 00:22:44;;;;;;;;;;;512.10;2380.80;;;;;;5050530;28;20406;-61
2022/09/08 00:25:10;;;;;;;;;;;512.10;2380.80;;;;;;5050759;28;19924;-61
2022/09/08 00:27:35;;;;;;;;;;;512.20;2380.80;;;;;;5050888;28;19916;-61
2022/09/08 00:30:01;;;;;;;;;;;512.40;2380.80;;;;;;5050439;28;19915;-61
2022/09/08 00:32:26;;;;;;;;;;;512.50;2380.80;;;;;;5050573;28;20007;-61
2022/09/08 00:34:52;;;;;;;;;;;512.40;2380.80;;;;;;5050608;28;19913;-61
2022/09/08 00:37:18;;;;;;;;;;;512.40;2380.80;;;;;;5050753;28;19913;-61
2022/09/08 00:39:44;;;;;;;;;;;512.40;2380.80;;;;;;5050608;28;19959;-61
2022/09/08 00:42:10;;;;;;;;;;;512.30;2380.80;;;;;;5050470;28;19909;-61
2022/09/08 00:44:35;;;;;;;;;;;512.10;2380.80;;;;;;5050484;28;20429;-61
2022/09/08 00:47:01;;;;;;;;;;;512.00;2380.80;;;;;;5050254;28;19908;-61
2022/09/08 00:49:28;;;;;;;;;;;512.00;2380.80;;;;;;5050693;28;19963;-61
2022/09/08 00:51:56;;;;;;;;;;;512.00;2380.80;;;;;;5050166;28;19917;-61
2022/09/08 00:54:21;;;;;;;;;;;512.00;2380.80;;;;;;5050338;28;19988;-61
2022/09/08 00:56:48;;;;;;;;;;;512.00;2380.80;;;;;;5050523;28;19917;-61
2022/09/08 00:59:15;;;;;;;;;;;512.00;2380.80;;;;;;5050240;28;19909;-61
2022/09/08 01:01:41;;;;;;;;;;;512.00;2380.80;;;;;;5049934;28;19963;-60
2022/09/08 01:04:08;;;;;;;;;;;512.10;2380.80;;;;;;5050558;28;19916;-61
2022/09/08 01:15:01;;;;;;;;;;;512.50;2380.80;;;;;;5053073;28;19943;-61
2022/09/08 01:17:28;;;;;;;;;;;512.60;2380.80;;;;;;5054266;28;19912;-61
2022/09/08 01:19:54;;;;;;;;;;;512.60;2380.80;;;;;;5054215;28;19916;-63
2022/09/08 01:22:22;;;;;;;;;;;512.80;2380.80;;;;;;5053786;28;19987;-61
2022/09/08 01:24:48;;;;;;;;;;;512.80;2380.80;;;;;;5054159;28;20424;-61
2022/09/08 01:27:21;;;;;;;;;;;512.90;2380.80;;;;;;5054081;28;20422;-61
2022/09/08 01:29:47;;;;;;;;;;;512.90;2380.80;;;;;;5054070;28;20290;-61
2022/09/08 01:32:13;;;;;;;;;;;537.70;2406.40;;;;;;5053652;28;20051;-61
2022/09/08 01:34:39;;;;;;;;;;;537.70;2406.40;;;;;;5053754;28;19951;-61
2022/09/08 01:37:05;;;;;;;;;;;537.80;2406.40;;;;;;5053943;28;20267;-62
2022/09/08 01:39:31;;;;;;;;;;;537.90;2406.40;;;;;;5053497;28;19915;-61
2022/09/08 01:41:57;;;;;;;;;;;537.90;2406.40;;;;;;5053899;28;19909;-61
2022/09/08 01:44:22;;;;;;;;;;;537.90;2406.40;;;;;;5053600;28;20291;-62
2022/09/08 01:46:48;;;;;;;;;;;537.90;2406.40;;;;;;5053369;28;19909;-61
2022/09/08 01:49:14;;;;;;;;;;;538.00;2406.40;;;;;;5053666;28;19913;-61
2022/09/08 01:51:39;;;;;;;;;;;538.00;2406.40;;;;;;5053202;28;19917;-61
2022/09/08 01:54:05;;;;;;;;;;;537.90;2406.40;;;;;;5053556;28;19979;-61
2022/09/08 01:56:32;;;;;;;;;;;538.00;2406.40;;;;;;5053201;28;19909;-62
2022/09/08 01:58:57;;;;;;;;;;;537.90;2406.40;;;;;;5053400;28;19917;-61
2022/09/08 02:01:23;;;;;;;;;;;537.90;2406.40;;;;;;5053656;28;19932;-61
2022/09/08 02:03:48;;;;;;;;;;;537.90;2406.40;;;;;;5053185;28;20401;-61
2022/09/08 02:06:14;;;;;;;;;;;538.00;2406.40;;;;;;5053392;28;20004;-61
2022/09/08 02:08:39;;;;;;;;;;;538.00;2406.40;;;;;;5053093;28;19916;-61
2022/09/08 02:11:05;;;;;;;;;;;538.00;2406.40;;;;;;5053009;28;19909;-61
2022/09/08 02:13:31;;;;;;;;;;;538.00;2406.40;;;;;;5053318;28;19913;-61
2022/09/08 02:15:57;;;;;;;;;;;537.90;2406.40;;;;;;5053104;28;20363;-62
2022/09/08 02:18:22;;;;;;;;;;;537.90;2406.40;;;;;;5053238;28;19913;-62
2022/09/08 02:20:48;;;;;;;;;;;537.90;2406.40;;;;;;5052846;28;19959;-62
2022/09/08 02:23:13;;;;;;;;;;;537.90;2406.40;;;;;;5052924;28;19928;-61
2022/09/08 02:25:39;;;;;;;;;;;537.90;2406.40;;;;;;5052866;28;19909;-61
2022/09/08 02:28:05;;;;;;;;;;;537.90;2406.40;;;;;;5053037;28;20290;-61
2022/09/08 02:30:31;;;;;;;;;;;537.90;2406.40;;;;;;5052755;28;19948;-61
2022/09/08 02:32:56;;;;;;;;;;;537.90;2406.40;;;;;;5052701;28;19960;-61
2022/09/08 02:35:22;;;;;;;;;;;537.90;2406.40;;;;;;5052596;28;19956;-62
2022/09/08 02:37:48;;;;;;;;;;;538.00;2406.40;;;;;;5052305;28;19917;-62
2022/09/08 02:40:13;;;;;;;;;;;537.90;2406.40;;;;;;5052646;28;20416;-62
2022/09/08 02:42:39;;;;;;;;;;;537.80;2406.40;;;;;;5052343;28;20350;-62
2022/09/08 02:45:06;;;;;;;;;;;537.80;2406.40;;;;;;5052644;28;19908;-62
2022/09/08 02:47:33;;;;;;;;;;;537.80;2406.40;;;;;;5052473;28;19909;-62
2022/09/08 02:49:58;;;;;;;;;;;537.70;2406.40;;;;;;5052310;28;19916;-62
2022/09/08 02:52:24;;;;;;;;;;;537.70;2406.40;;;;;;5052185;28;19921;-62
2022/09/08 02:54:50;;;;;;;;;;;537.70;2406.40;;;;;;5052306;28;19912;-62
2022/09/08 02:57:15;;;;;;;;;;;537.70;2406.40;;;;;;5052270;28;19916;-61
2022/09/08 02:59:41;;;;;;;;;;;537.70;2406.40;;;;;;5051942;28;20047;-62
2022/09/08 03:02:06;;;;;;;;;;;537.70;2406.40;;;;;;5052450;28;19913;-61
2022/09/08 03:04:32;;;;;;;;;;;537.60;2406.40;;;;;;5052048;28;19948;-61
2022/09/08 03:06:57;;;;;;;;;;;537.60;2406.40;;;;;;5052028;28;19956;-62
2022/09/08 03:09:23;;;;;;;;;;;512.90;2380.80;;;;;;5052336;28;20289;-62
2022/09/08 03:11:49;;;;;;;;;;;512.90;2380.80;;;;;;5051686;28;19959;-62
2022/09/08 03:14:14;;;;;;;;;;;512.90;2380.80;;;;;;5051725;28;19944;-61
2022/09/08 03:16:40;;;;;;;;;;;512.90;2380.80;;;;;;5051686;28;19916;-62
2022/09/08 03:19:06;;;;;;;;;;;512.90;2380.80;;;;;;5051943;28;19909;-62
2022/09/08 03:21:31;;;;;;;;;;;512.90;2380.80;;;;;;5051430;28;20283;-62
2022/09/08 03:23:57;;;;;;;;;;;537.60;2406.40;;;;;;5051798;28;19935;-61
2022/09/08 03:26:24;;;;;;;;;;;537.60;2406.40;;;;;;5052032;28;19916;-61
2022/09/08 03:28:49;;;;;;;;;;;537.60;2406.40;;;;;;5051597;28;19916;-61
2022/09/08 03:31:16;;;;;;;;;;;537.70;2406.40;;;;;;5051362;28;19909;-61
2022/09/08 03:33:42;;;;;;;;;;;537.70;2406.40;;;;;;5051429;28;20011;-61
2022/09/08 03:36:08;;;;;;;;;;;512.90;2380.80;;;;;;5051092;28;19920;-62
2022/09/08 03:38:35;;;;;;;;;;;512.90;2380.80;;;;;;5051358;28;19915;-62
2022/09/08 03:41:04;;;;;;;;;;;512.90;2380.80;;;;;;5051235;28;20347;-62
2022/09/08 03:43:29;;;;;;;;;;;512.90;2380.80;;;;;;5051184;28;19908;-62
2022/09/08 03:45:56;;;;;;;;;;;537.60;2406.40;;;;;;5051353;28;20327;-61
2022/09/08 03:48:21;;;;;;;;;;;537.60;2406.40;;;;;;5051315;28;20019;-61
2022/09/08 03:50:47;;;;;;;;;;;512.90;2380.80;;;;;;5051196;28;19944;-61
2022/09/08 03:53:13;;;;;;;;;;;512.90;2380.80;;;;;;5051143;28;20016;-61
2022/09/08 03:55:39;;;;;;;;;;;537.70;2406.40;;;;;;5051111;28;19916;-62
2022/09/08 03:58:05;;;;;;;;;;;512.90;2380.80;;;;;;5051143;28;19909;-61
2022/09/08 04:00:31;;;;;;;;;;;512.80;2380.80;;;;;;5051083;28;20358;-61
2022/09/08 04:02:56;;;;;;;;;;;512.80;2380.80;;;;;;5051077;28;19970;-62
2022/09/08 04:05:22;;;;;;;;;;;512.80;2380.80;;;;;;5051054;28;19916;-62
2022/09/08 04:07:48;;;;;;;;;;;512.80;2380.80;;;;;;5050823;28;19912;-62
2022/09/08 04:10:15;;;;;;;;;;;512.90;2380.80;;;;;;5051061;28;20306;-61
2022/09/08 04:12:41;;;;;;;;;;;512.80;2380.80;;;;;;5050666;28;19983;-62
2022/09/08 04:15:08;;;;;;;;;;;512.80;2380.80;;;;;;5050738;28;19913;-61
2022/09/08 04:17:33;;;;;;;;;;;512.80;2380.80;;;;;;5051174;28;19995;-62
2022/09/08 04:19:59;;;;;;;;;;;512.50;2380.80;;;;;;5050780;28;19952;-62
2022/09/08 04:22:25;;;;;;;;;;;512.40;2380.80;;;;;;5050629;28;19921;-62
2022/09/08 04:24:50;;;;;;;;;;;512.30;2380.80;;;;;;5050840;28;19917;-62
2022/09/08 04:27:17;;;;;;;;;;;512.20;2380.80;;;;;;5050750;28;19909;-62
2022/09/08 04:29:42;;;;;;;;;;;512.10;2380.80;;;;;;5050472;28;19909;-61
2022/09/08 04:32:08;;;;;;;;;;;512.10;2380.80;;;;;;5050456;28;20034;-62
2022/09/08 04:34:34;;;;;;;;;;;512.00;2380.80;;;;;;5050750;28;19954;-61
2022/09/08 04:37:00;;;;;;;;;;;487.30;2380.80;;;;;;5050561;28;19995;-61
2022/09/08 04:39:26;;;;;;;;;;;487.30;2380.80;;;;;;5050803;28;19960;-61
2022/09/08 04:41:52;;;;;;;;;;;512.00;2380.80;;;;;;5050506;28;19916;-61
2022/09/08 04:44:18;;;;;;;;;;;512.00;2380.80;;;;;;5050118;28;20275;-63
2022/09/08 04:46:43;;;;;;;;;;;512.00;2380.80;;;;;;5050661;28;19912;-62
2022/09/08 04:49:09;;;;;;;;;;;487.30;2380.80;;;;;;5051667;28;20306;-62
2022/09/08 04:51:34;;;;;;;;;;;512.00;2380.80;;;;;;5054777;28;20343;-62
2022/09/08 04:54:01;;;;;;;;;;;512.00;2380.80;;;;;;5063670;28;19912;-61
2022/09/08 04:56:27;;;;;;;;;;;512.10;2380.80;;;;;;5052092;28;20312;-61
2022/09/08 04:58:53;;;;;;;;;;;512.20;2380.80;;;;;;5070277;28;19931;-62
2022/09/08 05:01:20;;;;;;;;;;;512.20;2380.80;;;;;;5070072;28;20401;-61
2022/09/08 05:03:46;;;;;;;;;;;512.30;2380.80;;;;;;5070405;28;19912;-61
2022/09/08 05:06:15;;;;;;;;;;;512.30;2380.80;;;;;;5070193;28;19908;-61
2022/09/08 05:08:42;;;;;;;;;;;512.30;2380.80;;;;;;5070020;28;19938;-62
2022/09/08 05:11:09;;;;;;;;;;;512.40;2380.80;;;;;;5070082;28;19912;-63
2022/09/08 05:13:34;;;;;;;;;;;512.30;2380.80;;;;;;5070238;28;20415;-62
2022/09/08 05:16:10;;;;;;;;;;;512.30;2380.80;;;;;;5069862;28;19908;-62
2022/09/08 05:18:36;;;;;;;;;;;512.30;2380.80;;;;;;5070170;28;19908;-61
2022/09/08 05:21:02;;;;;;;;;;;512.40;2380.80;;;;;;5069987;28;19920;-62
2022/09/08 05:23:28;;;;;;;;;;;512.50;2380.80;;;;;;5069933;28;20022;-62
2022/09/08 05:25:55;;;;;;;;;;;512.60;2380.80;;;;;;5070256;28;19962;-61
2022/09/08 05:28:20;;;;;;;;;;;512.70;2380.80;;;;;;5069896;28;19909;-62
2022/09/08 05:30:46;;;;;;;;;;;512.70;2380.80;;;;;;5070232;28;19916;-61
2022/09/08 05:33:11;;;;;;;;;;;512.70;2380.80;;;;;;5069732;28;19924;-62
2022/09/08 05:35:37;;;;;;;;;;;512.50;2380.80;;;;;;5070033;28;19919;-61
2022/09/08 05:38:03;;;;;;;;;;;512.30;2380.80;;;;;;5069862;28;19908;-62
2022/09/08 05:40:28;;;;;;;;;;;512.60;2380.80;;;;;;5069771;28;19915;-63
2022/09/08 05:42:54;;;;;;;;;;;512.80;2380.80;;;;;;5070022;28;19909;-62
2022/09/08 05:45:19;;;;;;;;;;;512.90;2380.80;;;;;;5069935;28;20008;-63
2022/09/08 05:47:45;;;;;;;;;;;537.60;2406.40;;;;;;5070280;28;20251;-61
2022/09/08 05:50:10;;;;;;;;;;;537.80;2406.40;;;;;;5069977;28;19916;-62
2022/09/08 05:52:36;;;;;;;;;;;537.80;2406.40;;;;;;5069750;28;20009;-62
2022/09/08 05:55:02;;;;;;;;;;;537.80;2406.40;;;;;;5069599;28;19948;-61
2022/09/08 05:57:28;;;;;;;;;;;538.00;2406.40;;;;;;5069866;28;19913;-62
2022/09/08 05:59:53;;;;;;;;;;;538.10;2406.40;;;;;;5070710;28;19912;-62
2022/09/08 06:02:19;;;;;;;;;;;538.40;2406.40;;;;;;5073475;28;20397;-62
2022/09/08 06:04:44;;;;;;;;;;;563.30;2432.00;;;;;;5073559;28;20354;-62
2022/09/08 06:07:10;;;;;;;;;;;563.60;2432.00;;;;;;5073183;28;20275;-62
2022/09/08 06:09:35;;;;;;;;;;;614.80;2432.00;;;;;;5073417;28;19915;-62
2022/09/08 06:12:02;;;;;;;;;;;717.00;2432.00;;;;;;5072931;28;20447;-62
2022/09/08 06:14:27;;;;;;;;;;;768.60;2176.00;;;;;;5072941;28;19909;-63
2022/09/08 06:16:53;;;;;;;;;;;819.80;1920.00;;;;;;5072871;28;19935;-63
2022/09/08 06:19:18;;;;;;;;;;;870.40;1766.40;;;;;;5073145;28;19908;-63
2022/09/08 06:21:44;;;;;;;;;;;896.20;1664.00;;;;;;5072956;28;19943;-63
2022/09/08 06:24:11;;;;;;;;;;;922.50;1536.00;;;;;;5072718;28;19920;-64
2022/09/08 06:26:43;;;;;;;;;;;947.80;1433.60;;;;;;5072928;28;19916;-63
2022/09/08 06:29:11;;;;;;;;;;;;;;;;;;5072555;28;19909;-63
2022/09/08 06:31:41;;;;;;;;;;;947.20;1433.60;;;;;;5072645;28;19923;-63
2022/09/08 06:34:13;;;;;;;;;;;973.50;1382.40;;;;;;5072657;28;19951;-62
2022/09/08 06:36:45;;;;;;;;;;;999.00;1356.80;;;;;;5072553;28;20378;-64
2022/09/08 06:39:27;;;;;;;;;;;998.80;1356.80;;;;;;5072431;28;20357;-62
2022/09/08 06:42:00;;;;;;;;;;;999.20;1305.60;;;;;;5072476;28;19909;-63
2022/09/08 06:44:29;;;;;;;;;;;1024.10;1331.20;;;;;;5072556;28;20347;-63
2022/09/08 06:46:56;;;;;;;;;;;1049.60;1280.00;;;;;;5072582;28;19934;-62
2022/09/08 06:49:26;;;;;;;;;;;1024.30;1280.00;;;;;;5072405;28;19915;-62
2022/09/08 06:51:58;;;;;;;;;;;1024.10;1305.60;;;;;;5072060;28;19920;-63
2022/09/08 06:54:39;;;;;;;;;;;1024.00;1305.60;;;;;;5072339;28;20255;-62
2022/09/08 06:57:10;;;;;;;;;;;999.20;1331.20;;;;;;5072369;28;20006;-62
2022/09/08 06:59:50;;;;;;;;;;;998.90;1331.20;;;;;;5072162;28;19909;-62
2022/09/08 07:02:21;;;;;;;;;;;998.80;1356.80;;;;;;5072281;28;19954;-62
2022/09/08 07:04:52;;;;;;;;;;;973.60;1331.20;;;;;;5072228;28;19955;-63
2022/09/08 07:07:24;;;;;;;;;;;973.10;1356.80;;;;;;5072096;28;20405;-63
2022/09/08 07:09:57;;;;;;;;;;;998.60;1356.80;;;;;;5071978;28;19953;-62
2022/09/08 07:12:23;;;;;;;;;;;998.60;1356.80;;;;;;5071081;28;20278;-62
2022/09/08 07:15:06;;;;;;;;;;;998.50;1382.40;;;;;;5071684;28;19916;-63
2022/09/08 07:17:35;;;;;;;;;;;998.80;1356.80;;;;;;5071571;28;19908;-62
2022/09/08 07:20:02;;;;;;;;;;;999.20;1305.60;;;;;;5071744;28;19908;-61
2022/09/08 07:22:34;;;;;;;;;;;998.60;1331.20;;;;;;5053440;28;19924;-62
2022/09/08 07:25:02;;;;;;;;;;;998.50;1356.80;;;;;;5071708;28;19913;-62
2022/09/08 07:27:27;;;;;;;;;;;973.70;1331.20;;;;;;5071876;28;20374;-55
2022/09/08 07:29:55;;;;;;;;;;;999.00;1305.60;;;;;;5071525;28;19915;-56
2022/09/08 07:32:23;;;;;;;;;;;1024.30;1280.00;;;;;;5070935;28;19912;-56
2022/09/08 07:34:52;;;;;;;;;;;1024.00;1305.60;;;;;;5069668;28;19913;-56
2022/09/08 07:37:28;;;;;;;;;;;1024.20;1254.40;;;;;;5070108;28;20358;-55
2022/09/08 07:40:01;;;;;;;;;;;1024.40;1280.00;;;;;;5070098;28;19912;-56
2022/09/08 07:42:27;;;;;;;;;;;1050.10;1254.40;;;;;;5070030;28;20277;-54
2022/09/08 07:44:59;;;;;;;;;;;1075.20;1254.40;;;;;;5069683;28;20004;-56
2022/09/08 07:47:57;;;;;;;;;;;1076.10;1177.60;;;;;;5069263;28;19908;-55
2022/09/08 07:53:26;;;;;;;;;;;1101.70;1126.40;;;;;;5069751;28;19932;-55
2022/09/08 07:55:53;;;;;;;;;;;1050.40;1228.80;;;;;;5069775;28;19959;-54
2022/09/08 07:58:25;;;;;;;;;;;1050.50;1203.20;;;;;;5069610;28;19916;-56
2022/09/08 08:00:56;;;;;;;;;;;1075.80;1177.60;;;;;;5068864;28;19908;-55
2022/09/08 08:03:32;;;;;;;;;;;1101.40;1177.60;;;;;;5069381;28;19913;-54
2022/09/08 08:06:01;;;;;;;;;;;1127.00;1152.00;;;;;;5069408;28;19935;-55
2022/09/08 08:08:34;;;;;;;;;;;1101.20;1203.20;;;;;;5069707;28;19908;-57
2022/09/08 08:11:03;;;;;;;;;;;1100.80;1228.80;;;;;;5069467;28;19920;-54
2022/09/08 08:13:44;;;;;;;;;;;1100.90;1228.80;;;;;;5068788;28;19920;-56
2022/09/08 08:16:12;;;;;;;;;;;1075.20;1228.80;;;;;;5069147;28;20306;-56
2022/09/08 08:18:58;;;;;;;;;;;1101.60;1177.60;;;;;;5069235;28;20278;-55
2022/09/08 08:21:27;;;;;;;;;;;1101.20;1203.20;;;;;;5068599;28;19924;-55
2022/09/08 08:24:06;;;;;;;;;;;1101.60;1100.80;;;;;;5068726;28;20459;-60
2022/09/08 08:26:41;;;;;;;;;;;1177.80;1049.60;;;;;;5068430;28;19916;-56
2022/09/08 08:29:25;;;;;;;;;;;1203.30;1049.60;;;;;;5069174;28;19915;-62
2022/09/08 08:31:56;;;;;;;;;;;1203.70;1024.00;;;;;;5068994;28;19916;-57
2022/09/08 08:34:30;;;;;;;;;;;1203.80;1024.00;;;;;;5069025;28;20042;-61
2022/09/08 08:36:58;;;;;;;;;;;1203.70;1024.00;;;;;;5069194;28;19997;-60
2022/09/08 08:39:25;;;;;;;;;;;1177.60;972.80;;;;;;5068626;28;19954;-58
2022/09/08 08:41:59;;;;;;;;;;;1178.00;998.40;;;;;;5068780;28;19908;-60
2022/09/08 08:44:25;;;;;;;;;;;1127.10;1024.00;;;;;;5069002;28;20431;-59
2022/09/08 08:46:56;;;;;;;;;;;1126.90;1049.60;;;;;;5068598;28;19963;-60
2022/09/08 08:49:45;;;;;;;;;;;1100.80;1049.60;;;;;;5068851;28;20386;-60
2022/09/08 08:52:11;;;;;;;;;;;1024.10;1100.80;;;;;;5068071;28;19920;-59
2022/09/08 08:54:39;;;;;;;;;;;973.60;1177.60;;;;;;5068820;28;19965;-58
2022/09/08 08:57:19;;;;;;;;;;;948.10;1177.60;;;;;;5068996;28;20465;-56
2022/09/08 09:00:03;;;;;;;;;;;947.20;1203.20;;;;;;5068868;28;19963;-55
2022/09/08 09:02:47;;;;;;;;;;;896.90;1254.40;;;;;;5068604;28;19916;-55
2022/09/08 09:05:21;;;;;;;;;;;896.80;1280.00;;;;;;5068617;28;19962;-57
2022/09/08 09:07:46;;;;;;;;;;;896.60;1280.00;;;;;;5068644;28;20371;-58
2022/09/08 09:10:11;;;;;;;;;;;896.50;1305.60;;;;;;5068710;28;19916;-56
2022/09/08 09:12:43;;;;;;;;;;;871.20;1331.20;;;;;;5068667;28;19921;-55
2022/09/08 09:15:09;;;;;;;;;;;871.20;1356.80;;;;;;5068355;28;19912;-54
2022/09/08 09:17:37;;;;;;;;;;;871.00;1382.40;;;;;;5068465;28;19908;-55
2022/09/08 09:20:05;;;;;;;;;;;870.90;1408.00;;;;;;5068809;28;20034;-55
2022/09/08 09:22:31;;;;;;;;;;;870.90;1408.00;;;;;;5068231;28;20282;-54
2022/09/08 09:25:12;;;;;;;;;;;870.90;1433.60;;;;;;5068655;28;19913;-57
2022/09/08 09:27:41;;;;;;;;;;;870.50;1459.20;;;;;;5068454;28;19915;-55
2022/09/08 09:30:15;;;;;;;;;;;845.70;1382.40;;;;;;5067930;28;19915;-54
2022/09/08 09:32:50;;;;;;;;;;;845.50;1433.60;;;;;;5068113;28;19920;-54
2022/09/08 09:35:41;;;;;;;;;;;845.60;1408.00;;;;;;5069848;28;19909;-54
2022/09/08 09:38:11;;;;;;;;;;;845.40;1459.20;;;;;;4971005;28;20269;-54
2022/09/08 09:40:55;;;;;;;;;;;845.20;1433.60;;;;;;4970964;28;19968;-54
2022/09/08 09:43:34;;;;;;;;;;;845.20;1510.40;;;;;;4970396;28;19910;-59
2022/09/08 09:46:18;;;;;;;;;;;845.20;1433.60;;;;;;4970778;28;19910;-57
2022/09/08 09:48:52;;;;;;;;;;;845.20;1484.80;;;;;;4970952;28;20380;-58
2022/09/08 09:51:18;;;;;;;;;;;845.20;1433.60;;;;;;4970509;28;19925;-57
2022/09/08 09:53:58;;;;;;;;;;;845.20;1459.20;;;;;;4970654;28;19926;-53
2022/09/08 09:56:24;;;;;;;;;;;845.00;1433.60;;;;;;4970137;28;19915;-53
2022/09/08 09:58:58;;;;;;;;;;;844.90;1459.20;;;;;;4970542;28;20431;-54
2022/09/08 10:01:27;;;;;;;;;;;820.10;1433.60;;;;;;4970570;28;20377;-54
2022/09/08 10:03:58;;;;;;;;;;;820.10;1459.20;;;;;;4970439;28;20033;-55
2022/09/08 10:06:25;;;;;;;;;;;820.10;1484.80;;;;;;4970582;28;20345;-57
2022/09/08 10:09:09;;;;;;;;;;;820.10;1459.20;;;;;;4970183;28;19937;-57
2022/09/08 10:11:43;;;;;;;;;;;844.90;1459.20;;;;;;4971842;28;19964;-54
2022/09/08 10:14:14;;;;;;;;;;;820.10;1433.60;;;;;;4989892;28;19943;-55
2022/09/08 10:16:40;;;;;;;;;;;820.10;1433.60;;;;;;5072900;28;20277;-54
2022/09/08 10:19:08;;;;;;;;;;;820.10;1433.60;;;;;;5072992;28;19909;-54
2022/09/08 10:22:06;;;;;;;;;;;820.10;1459.20;;;;;;5072685;28;19912;-54
2022/09/08 10:24:35;;;;;;;;;;;820.10;1408.00;;;;;;5017316;28;20014;-54
2022/09/08 10:27:00;;;;;;;;;;;820.10;1382.40;;;;;;5073040;28;19912;-55
2022/09/08 10:29:37;;;;;;;;;;;819.50;1433.60;;;;;;5073081;28;20270;-56
2022/09/08 10:32:21;;;;;;;;;;;819.60;1408.00;;;;;;5072742;28;19912;-59
2022/09/08 10:35:05;;;;;;;;;;;819.70;1382.40;;;;;;5072926;28;19908;-57
2022/09/08 10:37:30;;;;;;;;;;;819.60;1433.60;;;;;;5072824;28;19956;-59
2022/09/08 10:39:59;;;;;;;;;;;819.30;1433.60;;;;;;5072838;28;19940;-54
2022/09/08 10:42:24;;;;;;;;;;;819.50;1459.20;;;;;;5072779;28;19931;-54
2022/09/08 10:44:50;;;;;;;;;;;819.70;1484.80;;;;;;5072580;28;20374;-54
2022/09/08 10:47:16;;;;;;;;;;;820.00;1561.60;;;;;;5072579;28;19915;-54
2022/09/08 10:50:00;;;;;;;;;;;820.10;1433.60;;;;;;5072411;28;20350;-54
2022/09/08 10:52:32;;;;;;;;;;;820.10;1408.00;;;;;;5072371;28;19965;-55
2022/09/08 10:55:01;;;;;;;;;;;820.10;1459.20;;;;;;5072321;28;19923;-54
2022/09/08 10:57:29;;;;;;;;;;;844.90;1510.40;;;;;;5072507;28;19912;-54
2022/09/08 11:00:07;;;;;;;;;;;820.10;1433.60;;;;;;5072503;28;20042;-53
2022/09/08 11:02:47;;;;;;;;;;;844.90;1484.80;;;;;;5071945;28;19908;-54
2022/09/08 11:05:15;;;;;;;;;;;819.80;1459.20;;;;;;5072078;28;19908;-54
2022/09/08 11:07:51;;;;;;;;;;;819.50;1459.20;;;;;;5072074;28;19909;-54
2022/09/08 11:10:16;;;;;;;;;;;819.30;1484.80;;;;;;5072081;28;19909;-59
2022/09/08 11:12:45;;;;;;;;;;;819.40;1459.20;;;;;;5071621;28;19983;-54
2022/09/08 11:15:10;;;;;;;;;;;794.40;1459.20;;;;;;5071589;28;20046;-54
2022/09/08 11:17:47;;;;;;;;;;;794.30;1484.80;;;;;;5071940;28;19951;-53
2022/09/08 11:20:51;;;;;;;;;;;794.50;1510.40;;;;;;5071705;28;19947;-60
2022/09/08 11:23:35;;;;;;;;;;;819.20;1561.60;;;;;;4970444;28;19930;-55
2022/09/08 11:26:12;;;;;;;;;;;819.30;1510.40;;;;;;4961131;28;19915;-59
2022/09/08 11:28:56;;;;;;;;;;;819.30;1510.40;;;;;;4969008;28;19914;-55
2022/09/08 11:31:32;;;;;;;;;;;819.80;1510.40;;;;;;4970775;28;20004;-53
2022/09/08 11:33:58;;;;;;;;;;;820.10;1484.80;;;;;;4966739;28;19973;-53
2022/09/08 11:36:49;;;;;;;;;;;844.80;1587.20;;;;;;4962513;28;19918;-54
2022/09/08 11:39:36;;;;;;;;;;;844.90;1510.40;;;;;;4965603;28;19910;-57
2022/09/08 11:42:01;;;;;;;;;;;844.80;1459.20;;;;;;4968608;28;20365;-55
2022/09/08 11:44:26;;;;;;;;;;;845.00;1459.20;;;;;;4968715;28;19914;-57
2022/09/08 11:47:08;;;;;;;;;;;845.20;1510.40;;;;;;4968549;28;19914;-55
2022/09/08 11:49:52;;;;;;;;;;;845.20;1459.20;;;;;;4968754;28;19933;-56
2022/09/08 11:52:27;;;;;;;;;;;844.90;1433.60;;;;;;4968139;28;20435;-55
2022/09/08 11:55:10;;;;;;;;;;;820.10;1408.00;;;;;;5054260;28;19963;-55
2022/09/08 11:57:46;;;;;;;;;;;820.00;1382.40;;;;;;5069319;28;19908;-55
2022/09/08 12:00:21;;;;;;;;;;;819.80;1433.60;;;;;;5069538;28;19932;-54
2022/09/08 12:03:06;;;;;;;;;;;819.80;1408.00;;;;;;5069489;28;19913;-54
2022/09/08 12:05:32;;;;;;;;;;;819.80;1408.00;;;;;;5068900;28;19965;-57
2022/09/08 12:08:10;;;;;;;;;;;820.10;1408.00;;;;;;5069495;28;19908;-55
2022/09/08 12:10:54;;;;;;;;;;;844.90;1459.20;;;;;;5069487;28;20258;-55
2022/09/08 12:13:35;;;;;;;;;;;845.20;1459.20;;;;;;5069154;28;20369;-55
2022/09/08 12:16:13;;;;;;;;;;;845.40;1510.40;;;;;;5069073;28;19995;-55
2022/09/08 12:18:45;;;;;;;;;;;845.00;1433.60;;;;;;5068999;28;19914;-55
2022/09/08 12:21:11;;;;;;;;;;;845.00;1484.80;;;;;;5069080;28;19916;-54
2022/09/08 12:24:02;;;;;;;;;;;845.20;1484.80;;;;;;5069112;28;19969;-54
2022/09/08 12:26:33;;;;;;;;;;;845.30;1459.20;;;;;;5063969;28;20027;-55
2022/09/08 12:29:23;;;;;;;;;;;845.30;1459.20;;;;;;5069094;28;19917;-56
2022/09/08 12:31:49;;;;;;;;;;;845.30;1459.20;;;;;;5068329;28;20006;-54
2022/09/08 12:34:37;;;;;;;;;;;845.40;1484.80;;;;;;5069202;28;20379;-54
2022/09/08 12:37:12;;;;;;;;;;;845.50;1484.80;;;;;;5068133;28;19908;-54
2022/09/08 12:39:56;;;;;;;;;;;845.50;1408.00;;;;;;5069227;28;19963;-54
2022/09/08 12:42:27;;;;;;;;;;;845.40;1356.80;;;;;;5068856;28;19909;-54
2022/09/08 12:45:13;;;;;;;;;;;845.20;1356.80;;;;;;5068104;28;20006;-54
2022/09/08 12:47:55;;;;;;;;;;;845.00;1382.40;;;;;;5070069;28;19908;-54
2022/09/08 12:50:39;;;;;;;;;;;844.90;1382.40;;;;;;5070364;28;19931;-56
2022/09/08 12:53:07;;;;;;;;;;;844.90;1382.40;;;;;;5070379;28;20334;-60
2022/09/08 12:55:36;;;;;;;;;;;844.80;1408.00;;;;;;5070507;28;19916;-54
2022/09/08 12:58:03;;;;;;;;;;;844.80;1433.60;;;;;;5070333;28;20293;-54
2022/09/08 13:00:30;;;;;;;;;;;844.90;1408.00;;;;;;5070252;28;19924;-54
2022/09/08 13:03:08;;;;;;;;;;;845.20;1433.60;;;;;;5070485;28;20327;-54
2022/09/08 13:05:52;;;;;;;;;;;845.40;1459.20;;;;;;5070299;28;19909;-54
2022/09/08 13:08:41;;;;;;;;;;;845.50;1408.00;;;;;;5070340;28;19995;-53
2022/09/08 13:11:12;;;;;;;;;;;845.50;1408.00;;;;;;4972235;28;20328;-53
2022/09/08 13:13:41;;;;;;;;;;;845.30;1408.00;;;;;;4973311;28;19925;-53
2022/09/08 13:16:06;;;;;;;;;;;845.50;1408.00;;;;;;4973236;28;19910;-54
2022/09/08 13:18:37;;;;;;;;;;;845.60;1408.00;;;;;;4973221;28;20272;-54
2022/09/08 13:21:10;;;;;;;;;;;845.70;1459.20;;;;;;4973023;28;19910;-53
2022/09/08 13:23:39;;;;;;;;;;;845.70;1459.20;;;;;;4973226;28;20468;-53
2022/09/08 13:26:07;;;;;;;;;;;845.70;1382.40;;;;;;4973194;28;19914;-54
2022/09/08 13:28:36;;;;;;;;;;;845.40;1408.00;;;;;;4973262;28;19910;-53
2022/09/08 13:31:21;;;;;;;;;;;845.40;1408.00;;;;;;4972866;28;20022;-55
2022/09/08 13:33:53;;;;;;;;;;;845.50;1382.40;;;;;;4973134;28;20446;-54
2022/09/08 13:36:37;;;;;;;;;;;845.40;1408.00;;;;;;4973025;28;19958;-55
2022/09/08 13:39:14;;;;;;;;;;;845.60;1382.40;;;;;;4972808;28;19910;-54
2022/09/08 13:41:49;;;;;;;;;;;845.70;1382.40;;;;;;4972783;28;19917;-54
2022/09/08 13:44:20;;;;;;;;;;;870.40;1356.80;;;;;;4973242;28;19914;-54
2022/09/08 13:49:49;;;;;;;;;;;845.60;1382.40;;;;;;5076541;28;19920;-55
2022/09/08 13:52:28;;;;;;;;;;;845.70;1382.40;;;;;;5076277;28;19917;-55
2022/09/08 13:55:00;;;;;;;;;;;870.40;1408.00;;;;;;5077016;28;20019;-55
2022/09/08 13:57:38;;;;;;;;;;;845.70;1382.40;;;;;;5076386;28;19908;-55
2022/09/08 14:00:14;;;;;;;;;;;845.60;1382.40;;;;;;5076373;28;19908;-60
2022/09/08 14:05:43;;;;;;;;;;;844.90;1408.00;;;;;;5076234;28;19915;-54
2022/09/08 14:08:24;;;;;;;;;;;844.90;1408.00;;;;;;5076462;28;19940;-54
2022/09/08 14:10:57;;;;;;;;;;;844.90;1408.00;;;;;;5076352;28;19958;-55
2022/09/08 14:13:22;;;;;;;;;;;844.80;1433.60;;;;;;5075035;28;19917;-57